createdAt,value
2018-02-07T00:01:13.183Z,27.87
2018-02-07T00:03:40.687Z,27.05
2018-02-07T00:06:08.949Z,27.58
2018-02-07T00:08:36.476Z,28.50
2018-02-07T00:11:04.734Z,26.70
2018-02-07T00:13:32.249Z,28.08
2018-02-07T00:15:59.756Z,27.10
2018-02-07T00:18:28.076Z,30.48
2018-02-07T00:20:55.595Z,29.37
2018-02-07T00:23:23.853Z,28.50
2018-02-07T00:25:51.374Z,27.45
2018-02-07T00:28:18.866Z,25.83
2018-02-07T00:30:46.376Z,29.95
2018-02-07T00:33:13.898Z,27.70
2018-02-07T00:35:42.162Z,29.05
2018-02-07T00:38:09.680Z,31.50
2018-02-07T00:40:37.193Z,30.40
2018-02-07T00:43:05.466Z,31.10
2018-02-07T00:45:33.760Z,31.10
2018-02-07T00:48:01.281Z,29.83
2018-02-07T00:50:29.581Z,27.92
2018-02-07T00:52:57.864Z,29.17
2018-02-07T00:55:26.225Z,29.08
2018-02-07T00:57:53.757Z,27.17
2018-02-07T01:00:21.250Z,29.73
2018-02-07T01:02:49.525Z,28.90
2018-02-07T01:05:17.797Z,30.02
2018-02-07T01:07:45.315Z,27.25
2018-02-07T01:10:12.828Z,28.33
2018-02-07T01:12:41.100Z,30.40
2018-02-07T01:15:09.401Z,28.05
2018-02-07T01:17:36.914Z,30.05
2018-02-07T01:20:04.438Z,28.08
2018-02-07T01:22:31.952Z,29.60
2018-02-07T01:25:00.219Z,28.77
2018-02-07T01:27:28.513Z,27.95
2018-02-07T01:29:56.027Z,27.37
2018-02-07T01:32:23.546Z,29.30
2018-02-07T01:34:51.039Z,28.90
2018-02-07T01:37:18.560Z,27.80
2018-02-07T01:39:46.069Z,28.05
2018-02-07T01:42:13.575Z,26.60
2018-02-07T01:44:41.090Z,28.12
2018-02-07T01:47:08.600Z,27.48
2018-02-07T01:49:36.107Z,28.35
2018-02-07T01:52:03.632Z,30.02
2018-02-07T01:54:31.149Z,27.98
2018-02-07T01:56:59.456Z,31.65
2018-02-07T01:59:26.949Z,30.02
2018-02-07T02:01:54.466Z,28.10
2018-02-07T02:04:21.977Z,30.05
2018-02-07T02:06:49.492Z,28.55
2018-02-07T02:09:17.010Z,29.48
2018-02-07T02:11:45.277Z,29.48
2018-02-07T02:14:13.549Z,30.15
2018-02-07T02:16:41.075Z,31.05
2018-02-07T02:19:08.565Z,31.17
2018-02-07T02:21:36.083Z,30.70
2018-02-07T02:24:03.582Z,28.45
2018-02-07T02:26:31.079Z,29.87
2018-02-07T02:28:58.594Z,27.27
2018-02-07T02:31:26.112Z,28.52
2018-02-07T02:33:53.634Z,28.33
2018-02-07T02:36:33.741Z,31.45
2018-02-07T02:39:01.259Z,30.08
2018-02-07T02:41:28.768Z,29.05
2018-02-07T02:43:56.258Z,27.20
2018-02-07T02:46:24.558Z,28.15
2018-02-07T02:48:52.075Z,28.73
2018-02-07T02:51:19.613Z,28.80
2018-02-07T02:53:47.123Z,28.77
2018-02-07T02:56:14.641Z,29.73
2018-02-07T02:58:42.163Z,29.50
2018-02-07T03:01:09.663Z,29.77
2018-02-07T03:03:37.186Z,29.67
2018-02-07T03:06:04.701Z,29.70
2018-02-07T03:08:32.957Z,27.83
2018-02-07T03:11:00.511Z,27.60
2018-02-07T03:13:28.015Z,28.38
2018-02-07T03:15:55.542Z,30.30
2018-02-07T03:18:23.820Z,26.90
2018-02-07T03:20:52.223Z,29.48
2018-02-07T03:23:19.747Z,29.85
2018-02-07T03:25:47.265Z,27.52
2018-02-07T03:28:14.786Z,30.60
2018-02-07T03:30:42.309Z,30.60
2018-02-07T03:33:09.818Z,30.05
2018-02-07T03:35:37.353Z,29.25
2018-02-07T03:38:05.622Z,31.45
2018-02-07T03:40:33.929Z,30.02
2018-02-07T03:43:01.440Z,33.55
2018-02-07T03:45:28.943Z,30.95
2018-02-07T03:47:56.458Z,27.25
2018-02-07T03:50:23.967Z,27.00
2018-02-07T03:52:51.496Z,25.60
2018-02-07T03:55:19.757Z,28.23
2018-02-07T03:57:47.321Z,27.85
2018-02-07T04:00:14.820Z,28.40
2018-02-07T04:02:42.332Z,27.62
2018-02-07T04:05:09.881Z,28.50
2018-02-07T04:07:37.386Z,29.23
2018-02-07T04:10:04.890Z,27.80
2018-02-07T04:12:32.407Z,27.25
2018-02-07T04:14:59.911Z,29.05
2018-02-07T04:17:28.240Z,30.98
2018-02-07T04:19:55.756Z,30.73
2018-02-07T04:22:23.277Z,30.88
2018-02-07T04:24:50.807Z,31.15
2018-02-07T04:27:18.301Z,31.65
2018-02-07T04:29:45.836Z,31.20
2018-02-07T04:32:13.333Z,29.50
2018-02-07T04:34:40.848Z,29.60
2018-02-07T04:37:08.362Z,29.58
2018-02-07T04:39:35.877Z,30.42
2018-02-07T04:42:03.415Z,30.60
2018-02-07T04:44:30.927Z,30.52
2018-02-07T04:46:58.444Z,30.20
2018-02-07T04:49:25.975Z,30.85
2018-02-07T04:51:54.233Z,30.30
2018-02-07T04:54:21.785Z,31.08
2018-02-07T04:56:49.296Z,31.37
2018-02-07T04:59:16.809Z,32.42
2018-02-07T05:01:44.318Z,32.28
2018-02-07T05:04:11.836Z,30.12
2018-02-07T05:06:40.135Z,29.70
2018-02-07T05:09:08.474Z,33.60
2018-02-07T05:11:35.988Z,32.17
2018-02-07T05:14:03.519Z,31.80
2018-02-07T05:16:31.792Z,30.55
2018-02-07T05:19:00.112Z,33.92
2018-02-07T05:21:27.598Z,33.40
2018-02-07T05:23:55.093Z,29.05
2018-02-07T05:26:22.601Z,29.17
2018-02-07T05:28:50.099Z,32.25
2018-02-07T05:31:18.389Z,29.65
2018-02-07T05:33:45.903Z,32.13
2018-02-07T05:36:13.401Z,35.30
2018-02-07T05:38:40.918Z,34.90
2018-02-07T05:41:08.409Z,36.25
2018-02-07T05:43:36.699Z,34.13
2018-02-07T05:46:04.202Z,34.47
2018-02-07T05:48:31.698Z,31.52
2018-02-07T05:50:59.992Z,34.22
2018-02-07T05:53:27.500Z,33.42
2018-02-07T05:55:55.018Z,33.10
2018-02-07T05:58:22.528Z,34.20
2018-02-07T06:00:50.037Z,35.50
2018-02-07T06:03:17.578Z,36.78
2018-02-07T06:05:45.083Z,34.17
2018-02-07T06:08:13.388Z,33.10
2018-02-07T06:10:40.887Z,32.72
2018-02-07T06:13:08.390Z,34.78
2018-02-07T06:15:35.917Z,34.30
2018-02-07T06:18:03.415Z,31.48
2018-02-07T06:20:30.960Z,33.03
2018-02-07T06:22:58.481Z,35.67
2018-02-07T06:25:25.986Z,31.55
2018-02-07T06:27:53.516Z,34.55
2018-02-07T06:30:21.037Z,32.30
2018-02-07T06:32:48.562Z,34.38
2018-02-07T06:35:16.063Z,34.72
2018-02-07T06:37:43.571Z,33.70
2018-02-07T06:40:11.097Z,33.45
2018-02-07T06:42:38.590Z,34.03
2018-02-07T06:45:06.117Z,35.58
2018-02-07T06:47:33.610Z,35.28
2018-02-07T06:50:01.107Z,34.38
2018-02-07T06:52:28.674Z,35.33
2018-02-07T06:54:56.910Z,34.60
2018-02-07T06:57:24.431Z,36.42
2018-02-07T06:59:51.931Z,34.90
2018-02-07T07:02:20.212Z,35.10
2018-02-07T07:04:48.510Z,35.40
2018-02-07T07:07:16.001Z,35.03
2018-02-07T07:09:43.532Z,34.15
2018-02-07T07:12:11.040Z,39.22
2018-02-07T07:14:38.548Z,40.95
2018-02-07T07:17:06.066Z,41.42
2018-02-07T07:19:33.575Z,39.55
2018-02-07T07:22:01.120Z,41.80
2018-02-07T07:24:28.622Z,44.53
2018-02-07T07:26:56.146Z,60.63
2018-02-07T07:29:23.680Z,50.53
2018-02-07T07:31:51.946Z,50.50
2018-02-07T07:34:20.245Z,42.25
2018-02-07T07:36:47.750Z,42.22
2018-02-07T07:39:15.273Z,44.50
2018-02-07T07:41:47.385Z,40.53
2018-02-07T07:44:17.949Z,39.20
2018-02-07T07:46:46.708Z,36.70
2018-02-07T07:49:29.944Z,41.40
2018-02-07T07:51:59.813Z,37.30
2018-02-07T07:54:27.510Z,40.08
2018-02-07T07:56:55.044Z,41.97
2018-02-07T07:59:27.705Z,40.38
2018-02-07T08:01:56.092Z,34.30
2018-02-07T08:04:23.654Z,37.83
2018-02-07T08:06:51.209Z,38.50
2018-02-07T08:09:18.711Z,40.45
2018-02-07T08:11:47.001Z,37.03
2018-02-07T08:14:15.302Z,40.83
2018-02-07T08:16:42.826Z,38.80
2018-02-07T08:19:11.095Z,38.20
2018-02-07T08:21:38.649Z,37.80
2018-02-07T08:24:06.173Z,36.50
2018-02-07T08:26:33.688Z,37.20
2018-02-07T08:29:02.015Z,36.42
2018-02-07T08:31:29.532Z,36.63
2018-02-07T08:33:57.030Z,36.63
2018-02-07T08:36:25.342Z,40.63
2018-02-07T08:38:52.840Z,40.22
2018-02-07T08:41:20.349Z,39.38
2018-02-07T08:43:47.901Z,39.08
2018-02-07T08:46:15.431Z,37.25
2018-02-07T08:48:42.989Z,36.03
2018-02-07T08:51:11.394Z,38.25
2018-02-07T08:53:39.812Z,36.05
2018-02-07T08:56:07.343Z,36.75
2018-02-07T08:58:34.889Z,35.90
2018-02-07T09:01:04.073Z,39.30
2018-02-07T09:03:31.587Z,38.88
2018-02-07T09:06:00.470Z,37.60
2018-02-07T09:08:28.744Z,36.33
2018-02-07T09:10:57.061Z,39.10
2018-02-07T09:13:24.586Z,37.15
2018-02-07T09:15:52.107Z,40.83
2018-02-07T09:18:19.636Z,38.35
2018-02-07T09:20:47.146Z,38.38
2018-02-07T09:23:15.455Z,38.78
2018-02-07T09:25:43.089Z,35.10
2018-02-07T09:28:10.639Z,35.00
2018-02-07T09:30:38.171Z,37.40
2018-02-07T09:33:06.987Z,37.05
2018-02-07T09:35:38.130Z,35.97
2018-02-07T09:38:06.442Z,38.08
2018-02-07T09:40:33.955Z,35.53
2018-02-07T09:43:01.486Z,36.15
2018-02-07T09:45:28.986Z,34.25
2018-02-07T09:47:57.283Z,36.65
2018-02-07T09:50:24.869Z,34.28
2018-02-07T09:52:53.547Z,34.35
2018-02-07T10:15:20.076Z,34.15
2018-02-07T10:20:31.163Z,31.87
2018-02-07T10:22:58.943Z,31.77
2018-02-07T10:25:37.539Z,33.35
2018-02-07T10:28:07.699Z,37.47
2018-02-07T10:30:45.074Z,32.78
2018-02-07T10:38:50.839Z,31.10
2018-02-07T10:41:27.281Z,34.45
2018-02-07T10:44:00.405Z,33.72
2018-02-07T10:46:31.676Z,30.73
2018-02-07T10:49:00.048Z,32.22
2018-02-07T10:51:27.672Z,32.85
2018-02-07T10:53:55.289Z,33.03
2018-02-07T10:56:22.796Z,35.63
2018-02-07T10:58:50.322Z,36.97
2018-02-07T11:01:17.843Z,31.35
2018-02-07T11:03:46.105Z,33.13
2018-02-07T11:06:17.207Z,30.83
2018-02-07T11:08:53.657Z,34.35
2018-02-07T11:11:24.907Z,34.70
2018-02-07T11:14:06.246Z,31.67
2018-02-07T11:16:46.207Z,34.92
2018-02-07T11:19:40.504Z,32.70
2018-02-07T11:22:12.221Z,32.80
2018-02-07T11:24:40.602Z,34.60
2018-02-07T11:27:09.908Z,36.25
2018-02-07T11:29:44.537Z,35.97
2018-02-07T11:32:24.061Z,33.00
2018-02-07T11:34:57.800Z,33.75
2018-02-07T11:37:28.174Z,31.12
2018-02-07T11:39:57.632Z,32.30
2018-02-07T11:42:25.366Z,32.53
2018-02-07T11:44:56.512Z,38.92
2018-02-07T11:47:25.991Z,35.67
2018-02-07T11:50:00.913Z,38.60
2018-02-07T11:52:40.323Z,35.03
2018-02-07T11:55:08.437Z,34.65
2018-02-07T11:57:38.407Z,32.33
2018-02-07T12:00:11.130Z,35.50
2018-02-07T12:02:40.825Z,36.28
2018-02-07T12:05:09.864Z,32.80
2018-02-07T12:07:37.448Z,35.63
2018-02-07T12:10:04.964Z,32.80
2018-02-07T12:12:32.505Z,31.95
2018-02-07T12:15:00.789Z,36.08
2018-02-07T12:17:28.304Z,33.17
2018-02-07T12:19:55.818Z,32.83
2018-02-07T12:22:23.314Z,32.28
2018-02-07T12:24:50.850Z,33.30
2018-02-07T12:27:19.161Z,34.95
2018-02-07T12:29:46.657Z,31.90
2018-02-07T12:32:14.184Z,34.17
2018-02-07T12:34:41.677Z,33.92
2018-02-07T12:37:11.066Z,35.53
2018-02-07T12:39:38.763Z,36.83
2018-02-07T12:42:09.010Z,37.53
2018-02-07T12:44:37.679Z,36.78
2018-02-07T12:47:06.447Z,37.70
2018-02-07T12:49:34.243Z,35.95
2018-02-07T12:52:02.037Z,34.67
2018-02-07T12:54:29.765Z,34.67
2018-02-07T12:56:58.201Z,37.17
2018-02-07T12:59:26.625Z,36.65
2018-02-07T13:01:55.434Z,34.42
2018-02-07T13:04:23.129Z,36.35
2018-02-07T13:06:50.797Z,36.88
2018-02-07T13:09:18.295Z,36.30
2018-02-07T13:11:46.577Z,37.47
2018-02-07T13:14:14.106Z,37.75
2018-02-07T13:16:41.634Z,35.10
2018-02-07T13:19:09.180Z,37.38
2018-02-07T13:21:36.697Z,37.88
2018-02-07T13:24:04.963Z,39.33
2018-02-07T13:26:32.492Z,36.65
2018-02-07T13:28:59.994Z,36.97
2018-02-07T13:31:28.322Z,40.08
2018-02-07T13:33:55.811Z,37.10
2018-02-07T13:36:23.384Z,37.00
2018-02-07T13:38:50.881Z,33.20
2018-02-07T13:41:18.391Z,36.28
2018-02-07T13:43:46.684Z,34.95
2018-02-07T13:46:14.961Z,34.85
2018-02-07T13:48:42.487Z,35.85
2018-02-07T13:51:10.003Z,34.83
2018-02-07T13:53:37.511Z,37.63
2018-02-07T13:56:05.030Z,36.80
2018-02-07T13:58:32.544Z,35.80
2018-02-07T14:01:00.838Z,32.80
2018-02-07T14:03:28.364Z,33.78
2018-02-07T14:05:55.880Z,35.55
2018-02-07T14:08:23.428Z,33.55
2018-02-07T14:10:50.922Z,30.60
2018-02-07T14:13:18.453Z,34.65
2018-02-07T14:15:45.969Z,30.85
2018-02-07T14:18:14.283Z,32.95
2018-02-07T14:20:41.778Z,33.50
2018-02-07T14:23:09.270Z,32.70
2018-02-07T14:25:37.560Z,33.95
2018-02-07T14:28:05.080Z,30.88
2018-02-07T14:30:32.603Z,32.45
2018-02-07T14:33:00.108Z,31.20
2018-02-07T14:35:28.417Z,29.37
2018-02-07T14:37:55.914Z,30.67
2018-02-07T14:40:23.406Z,30.37
2018-02-07T14:42:51.686Z,30.23
2018-02-07T14:45:19.965Z,31.48
2018-02-07T14:47:48.241Z,30.12
2018-02-07T14:50:16.505Z,31.62
2018-02-07T14:52:44.804Z,30.45
2018-02-07T14:55:12.311Z,33.63
2018-02-07T14:57:39.824Z,30.02
2018-02-07T15:00:07.337Z,29.92
2018-02-07T15:02:34.829Z,27.02
2018-02-07T15:05:03.161Z,27.27
2018-02-07T15:07:30.660Z,27.23
2018-02-07T15:09:58.942Z,27.87
2018-02-07T15:12:26.438Z,31.15
2018-02-07T15:14:54.712Z,31.75
2018-02-07T15:17:22.235Z,30.30
2018-02-07T15:19:49.734Z,29.05
2018-02-07T15:22:17.289Z,28.23
2018-02-07T15:24:44.786Z,30.52
2018-02-07T15:27:12.286Z,30.62
2018-02-07T15:29:39.802Z,30.58
2018-02-07T15:32:07.316Z,31.42
2018-02-07T15:34:34.830Z,29.75
2018-02-07T15:37:03.104Z,31.00
2018-02-07T15:39:31.375Z,32.30
2018-02-07T15:41:59.655Z,30.42
2018-02-07T15:44:27.931Z,29.77
2018-02-07T15:46:56.220Z,30.10
2018-02-07T15:49:23.715Z,32.17
2018-02-07T15:51:51.224Z,32.85
2018-02-07T15:54:19.506Z,32.40
2018-02-07T15:56:47.809Z,28.98
2018-02-07T15:59:15.319Z,31.15
2018-02-07T16:01:42.828Z,30.30
2018-02-07T16:04:10.341Z,27.65
2018-02-07T16:06:37.854Z,29.50
2018-02-07T16:09:05.353Z,29.25
2018-02-07T16:11:32.869Z,31.40
2018-02-07T16:14:00.380Z,35.10
2018-02-07T16:16:28.656Z,35.45
2018-02-07T16:18:56.943Z,31.85
2018-02-07T16:21:25.201Z,31.33
2018-02-07T16:23:52.736Z,32.88
2018-02-07T16:26:20.225Z,34.83
2018-02-07T16:28:48.513Z,34.05
2018-02-07T16:31:16.807Z,31.83
2018-02-07T16:33:44.316Z,33.03
2018-02-07T16:36:11.834Z,29.27
2018-02-07T16:38:39.339Z,30.40
2018-02-07T16:41:06.834Z,28.25
2018-02-07T16:43:34.372Z,28.95
2018-02-07T16:46:02.640Z,26.80
2018-02-07T16:48:30.937Z,27.50
2018-02-07T16:50:58.442Z,28.10
2018-02-07T16:53:25.967Z,26.62
2018-02-07T16:55:53.477Z,26.42
2018-02-07T16:58:21.003Z,26.15
2018-02-07T17:00:48.494Z,25.58
2018-02-07T17:03:15.999Z,27.70
2018-02-07T17:05:43.519Z,29.10
2018-02-07T17:08:11.032Z,30.73
2018-02-07T17:10:38.568Z,31.00
2018-02-07T17:13:06.076Z,30.35
2018-02-07T17:15:33.571Z,30.00
2018-02-07T17:18:01.869Z,31.23
2018-02-07T17:20:29.361Z,30.00
2018-02-07T17:22:56.882Z,32.28
2018-02-07T17:25:25.191Z,31.73
2018-02-07T17:27:52.692Z,30.02
2018-02-07T17:30:20.966Z,28.80
2018-02-07T17:32:49.222Z,27.58
2018-02-07T17:35:16.744Z,28.42
2018-02-07T17:37:44.242Z,30.02
2018-02-07T17:40:11.775Z,29.05
2018-02-07T17:42:39.284Z,29.73
2018-02-07T17:45:07.554Z,29.20
2018-02-07T17:47:35.848Z,30.20
2018-02-07T17:50:03.351Z,30.52
2018-02-07T17:52:30.901Z,30.88
2018-02-07T17:54:58.412Z,33.85
2018-02-07T17:57:26.682Z,34.60
2018-02-07T17:59:54.975Z,32.63
2018-02-07T18:02:22.524Z,34.22
2018-02-07T18:04:50.798Z,31.65
2018-02-07T18:07:19.066Z,31.85
2018-02-07T18:09:47.349Z,31.40
2018-02-07T18:12:15.645Z,33.95
2018-02-07T18:14:43.164Z,34.90
2018-02-07T18:17:10.701Z,37.58
2018-02-07T18:19:38.225Z,43.00
2018-02-07T18:22:05.764Z,44.90
2018-02-07T18:24:34.040Z,46.20
2018-02-07T18:27:02.311Z,46.42
2018-02-07T18:29:30.627Z,46.28
2018-02-07T18:31:58.153Z,43.10
2018-02-07T18:34:25.694Z,39.67
2018-02-07T18:36:53.963Z,37.80
2018-02-07T18:39:22.253Z,36.00
2018-02-07T18:41:50.540Z,37.80
2018-02-07T18:44:18.051Z,34.97
2018-02-07T18:46:45.601Z,35.00
2018-02-07T18:49:13.103Z,35.85
2018-02-07T18:51:41.389Z,34.15
2018-02-07T18:54:09.674Z,37.10
2018-02-07T18:56:37.192Z,34.00
2018-02-07T18:59:04.722Z,32.67
2018-02-07T19:01:32.227Z,31.08
2018-02-07T19:04:00.513Z,28.20
2018-02-07T19:06:28.818Z,26.15
2018-02-07T19:08:56.336Z,28.15
2018-02-07T19:11:24.629Z,27.20
2018-02-07T19:13:52.941Z,28.42
2018-02-07T19:16:21.719Z,30.15
2018-02-07T19:18:49.307Z,37.28
2018-02-07T19:21:16.834Z,36.05
2018-02-07T19:23:44.370Z,35.30
2018-02-07T19:26:12.642Z,33.80
2018-02-07T19:28:40.965Z,37.42
2018-02-07T19:31:08.482Z,31.67
2018-02-07T19:33:36.044Z,33.75
2018-02-07T19:36:04.844Z,32.13
2018-02-07T19:38:32.381Z,31.98
2018-02-07T19:41:00.667Z,31.85
2018-02-07T19:43:28.182Z,32.15
2018-02-07T19:45:55.715Z,28.50
2018-02-07T19:48:23.226Z,28.87
2018-02-07T19:50:51.506Z,28.10
2018-02-07T19:53:19.810Z,27.35
2018-02-07T19:55:47.352Z,30.70
2018-02-07T19:58:14.897Z,28.87
2018-02-07T20:00:42.445Z,30.10
2018-02-07T20:03:09.970Z,28.85
2018-02-07T20:05:37.537Z,31.05
2018-02-07T20:08:05.103Z,32.15
2018-02-07T20:10:32.641Z,29.48
2018-02-07T20:13:00.164Z,30.62
2018-02-07T20:15:28.429Z,29.17
2018-02-07T20:17:56.746Z,29.48
2018-02-07T20:20:24.312Z,26.80
2018-02-07T20:22:51.843Z,27.83
2018-02-07T20:25:19.376Z,29.00
2018-02-07T20:27:47.704Z,27.52
2018-02-07T20:30:15.265Z,30.05
2018-02-07T20:32:44.298Z,29.77
2018-02-07T20:35:12.262Z,28.20
2018-02-07T20:37:42.851Z,29.42
2018-02-07T20:40:10.401Z,31.75
2018-02-07T20:42:37.920Z,32.60
2018-02-07T20:45:06.249Z,29.48
2018-02-07T20:47:33.772Z,31.10
2018-02-07T20:50:03.066Z,31.10
2018-02-07T20:52:31.352Z,34.03
2018-02-07T20:54:58.880Z,33.70
2018-02-07T20:57:26.436Z,31.67
2018-02-07T20:59:53.971Z,33.22
2018-02-07T21:02:21.498Z,33.85
2018-02-07T21:04:48.997Z,33.47
2018-02-07T21:07:16.545Z,32.38
2018-02-07T21:09:44.107Z,31.60
2018-02-07T21:12:11.625Z,33.53
2018-02-07T21:14:39.203Z,32.17
2018-02-07T21:17:06.702Z,33.88
2018-02-07T21:19:34.987Z,34.65
2018-02-07T21:22:02.512Z,37.67
2018-02-07T21:24:30.034Z,33.72
2018-02-07T21:26:57.612Z,35.08
2018-02-07T21:29:25.094Z,33.47
2018-02-07T21:31:52.623Z,33.35
2018-02-07T21:34:20.127Z,32.97
2018-02-07T21:36:47.640Z,32.28
2018-02-07T21:39:15.156Z,32.83
2018-02-07T21:41:42.655Z,33.15
2018-02-07T21:44:10.192Z,32.03
2018-02-07T21:46:38.463Z,33.28
2018-02-07T21:49:06.740Z,32.10
2018-02-07T21:51:35.018Z,31.35
2018-02-07T21:54:03.294Z,32.45
2018-02-07T21:56:31.581Z,33.53
2018-02-07T21:58:59.093Z,31.95
2018-02-07T22:01:26.593Z,31.00
2018-02-07T22:03:54.874Z,30.40
2018-02-07T22:06:22.384Z,31.35
2018-02-07T22:08:49.950Z,29.52
2018-02-07T22:11:18.958Z,29.58
2018-02-07T22:13:46.496Z,30.90
2018-02-07T22:16:14.781Z,32.47
2018-02-07T22:18:42.291Z,32.38
2018-02-07T22:21:09.819Z,31.80
2018-02-07T22:26:12.166Z,31.40
2018-02-07T22:28:40.444Z,29.17
2018-02-07T22:31:07.964Z,30.33
2018-02-07T22:33:35.483Z,32.17
2018-02-07T22:36:02.988Z,30.80
2018-02-07T22:38:30.528Z,30.62
2018-02-07T22:40:58.807Z,30.65
2018-02-07T22:43:27.093Z,30.23
2018-02-07T22:45:54.604Z,32.80
2018-02-07T22:48:22.104Z,34.58
2018-02-07T22:50:49.641Z,32.30
2018-02-07T22:53:17.911Z,36.20
2018-02-07T22:55:45.438Z,34.85
2018-02-07T22:58:12.937Z,34.13
2018-02-07T23:00:41.206Z,34.83
2018-02-07T23:03:08.741Z,36.03
2018-02-07T23:05:36.261Z,33.08
2018-02-07T23:08:03.777Z,34.13
2018-02-07T23:10:31.295Z,33.42
2018-02-07T23:12:58.822Z,34.38
2018-02-07T23:15:26.324Z,32.75
2018-02-07T23:17:53.840Z,34.35
2018-02-07T23:20:21.355Z,35.20
2018-02-07T23:22:48.849Z,35.17
2018-02-07T23:25:17.129Z,35.35
2018-02-07T23:27:44.648Z,34.58
2018-02-07T23:30:12.163Z,33.10
2018-02-07T23:32:39.662Z,32.95
2018-02-07T23:35:07.187Z,33.45
2018-02-07T23:37:34.698Z,32.45
2018-02-07T23:40:02.214Z,33.65
2018-02-07T23:42:29.726Z,31.90
2018-02-07T23:44:58.004Z,34.22
2018-02-07T23:47:26.293Z,34.42
2018-02-07T23:49:53.802Z,32.05
2018-02-07T23:52:21.298Z,32.08
2018-02-07T23:54:49.601Z,33.40
2018-02-07T23:57:17.104Z,35.22
2018-02-07T23:59:44.649Z,35.28
